Wah Cantt Weather



Wah Cantt's Current Weather

Temprature 6.67o clear sky

clear sky

Rain: 0 %

Min Temprature6.67o
Max Temprature6.67o
Humidity89
Wind Speed0.45 m/h
Sun Rise07:12:57
Sun Set17:25:36
Current Time: 18-Jan-2021 06:16:15
Lat/Lon: 33.7875, 72.7265




Wah Cantt's Geo Location



Wah Cantt's Weather Forecast

Time Overall Temp Min Temp Max Temp Humidity Wind Speed Rain
18-Jan-2021 (Mon)
08:00:00 clear sky 7.560 7.560 8.490 73 0.96 m/h 0 %
11:00:00 clear sky 13.770 13.770 15.730 45 1.65 m/h 0 %
14:00:00 clear sky 17.820 17.820 18.580 31 1.84 m/h 0 %
17:00:00 clear sky 15.060 15.060 15.130 37 1.84 m/h 0 %
20:00:00 clear sky 11.080 11.080 11.080 45 1.3 m/h 0 %
23:00:00 clear sky 9.560 9.560 9.560 49 1.43 m/h 0 %
19-Jan-2021 (Tue)
02:00:00 clear sky 8.560 8.560 8.560 52 1.65 m/h 0 %
05:00:00 clear sky 7.550 7.550 7.550 55 1.43 m/h 0 %
08:00:00 clear sky 8.180 8.180 8.180 52 1.69 m/h 0 %
11:00:00 clear sky 16.340 16.340 16.340 30 2.26 m/h 0 %
14:00:00 clear sky 19.550 19.550 19.550 24 3.07 m/h 0 %
17:00:00 clear sky 15.510 15.510 15.510 32 2.18 m/h 0 %
20:00:00 clear sky 11.210 11.210 11.210 41 1.39 m/h 0 %
23:00:00 clear sky 9.660 9.660 9.660 46 1.47 m/h 0 %
20-Jan-2021 (Wed)
02:00:00 clear sky 8.740 8.740 8.740 48 1.75 m/h 0 %
05:00:00 clear sky 7.840 7.840 7.840 50 2.24 m/h 0 %
08:00:00 clear sky 8.040 8.040 8.040 49 2.18 m/h 0 %
11:00:00 clear sky 16.350 16.350 16.350 28 3.14 m/h 0 %
14:00:00 clear sky 19.880 19.880 19.880 23 4.08 m/h 0 %
17:00:00 scattered clouds 15.720 15.720 15.720 31 2.56 m/h 0 %
20:00:00 broken clouds 11.840 11.840 11.840 38 2.12 m/h 0 %
23:00:00 scattered clouds 9.930 9.930 9.930 43 2.26 m/h 0 %
21-Jan-2021 (Thu)
02:00:00 broken clouds 8.580 8.580 8.580 46 2.46 m/h 0 %
05:00:00 broken clouds 7.720 7.720 7.720 46 2.42 m/h 0 %
08:00:00 overcast clouds 8.020 8.020 8.020 45 2.22 m/h 0 %
11:00:00 overcast clouds 15.720 15.720 15.720 27 2.29 m/h 0 %
14:00:00 overcast clouds 18.750 18.750 18.750 23 2.54 m/h 0 %
17:00:00 overcast clouds 14.520 14.520 14.520 32 1.28 m/h 0 %
20:00:00 overcast clouds 10.690 10.690 10.690 39 1.42 m/h 0 %
23:00:00 broken clouds 10.000 10.000 10.000 43 1.85 m/h 0 %
22-Jan-2021 (Fri)
02:00:00 clear sky 9.650 9.650 9.650 44 2.09 m/h 0 %
05:00:00 scattered clouds 8.720 8.720 8.720 46 1.07 m/h 0 %
08:00:00 broken clouds 9.090 9.090 9.090 46 1.06 m/h 0 %
11:00:00 scattered clouds 17.520 17.520 17.520 26 0.41 m/h 0 %
14:00:00 few clouds 21.030 21.030 21.030 23 4.37 m/h 0 %
17:00:00 few clouds 16.880 16.880 16.880 31 3.69 m/h 0 %
20:00:00 clear sky 12.250 12.250 12.250 42 2.46 m/h 0 %
23:00:00 clear sky 10.680 10.680 10.680 46 2.06 m/h 0 %
23-Jan-2021 (Sat)
02:00:00 clear sky 9.380 9.380 9.380 50 1.53 m/h 0 %
05:00:00 clear sky 8.170 8.170 8.170 54 2.36 m/h 0 %

Famous Cities (60)